Great Bend, KS

7:41 PM CDT on September 26, 2016 (GMT -0500)
Great Bend Municipal

Weather History for KGBD - March, 2013

Change the Weather History Date:

Tuesday, March 12, 2013

  Actual Average Record
Temperature  
Mean Temperature 40 °F -  
Max Temperature 51 °F 58 °F 84 °F (1989)
Min Temperature 28 °F 33 °F 4 °F (1950)
Degree Days  
Heating Degree Days 26    
Moisture  
Dew Point 25 °F    
Average Humidity 55    
Maximum Humidity 87    
Minimum Humidity 26    
Precipitation  
Precipitation 0.00 in - - ()
Sea Level Pressure  
Sea Level Pressure 30.22 in    
Wind  
Wind Speed 9 mph (NNW)    
Max Wind Speed 22 mph    
Max Gust Speed 28 mph    
Visibility 10 miles    
Events      
Averages and records for this station are not official NWS values.
T = Trace of Precipitation, MM = Missing Value Source: NWS Daily Summary

Daily Weather History Graph

Daily Weather History Graph

Search for Another Location

Airport or City:

Trip Planner

Search our weather history database for the weather conditions in past years. The results will help you decide how hot, cold, wet, or windy it might be!

Date:

Astronomy

Mar. 12, 2013 Rise Set
Actual Time 7:50 AM CDT 7:39 PM CDT
Civil Twilight 7:24 AM CDT 8:06 PM CDT
Nautical Twilight 6:53 AM CDT 8:36 PM CDT
Astronomical Twilight 6:22 AM CDT 9:07 PM CDT
Moon 7:59 AM CDT (3/12) 8:54 PM CDT (3/12)
Length of Visible Light 12h 41m
Length of Day
11h 49m
New Moon, 1% of the Moon is Illuminated
Mar 12
New Moon
Mar 19
First Quarter
Mar 27
Full
Apr 2
Last Quarter
Apr 10
New

Hourly Weather History & Observations

Time (CDT) Temp. Windchill Dew Point Humidity Pressure Visibility Wind Dir Wind Speed Gust Speed Precip Events Conditions
12:15 AM 44.6 °F 41.4 °F 32.0 °F 61% 30.02 in 10.0 mi NW 5.8 mph - N/A   Overcast
12:35 AM 44.6 °F 40.7 °F 33.8 °F 66% 30.04 in 10.0 mi NW 6.9 mph - N/A   Overcast
12:55 AM 44.6 °F 40.7 °F 32.0 °F 61% 30.05 in 10.0 mi NW 6.9 mph - N/A   Overcast
1:15 AM 44.6 °F 40.7 °F 32.0 °F 61% 30.06 in 10.0 mi NW 6.9 mph - N/A   Overcast
1:35 AM 44.6 °F 37.4 °F 30.2 °F 57% 30.08 in 10.0 mi NNW 16.1 mph 23.0 mph N/A   Overcast
1:55 AM 44.6 °F 39.7 °F 33.8 °F 66% 30.08 in 10.0 mi West 9.2 mph - N/A   Mostly Cloudy
2:15 AM 42.8 °F 38.6 °F 33.8 °F 70% 30.07 in 10.0 mi WSW 6.9 mph - N/A   Overcast
2:35 AM 42.8 °F 38.0 °F 33.8 °F 70% 30.08 in 10.0 mi West 8.1 mph - N/A   Overcast
2:55 AM 42.8 °F 38.6 °F 33.8 °F 70% 30.09 in 10.0 mi WNW 6.9 mph - N/A   Overcast
3:15 AM 42.8 °F 38.0 °F 33.8 °F 70% 30.09 in 10.0 mi NW 8.1 mph - N/A   Overcast
3:35 AM 42.8 °F 39.3 °F 33.8 °F 70% 30.10 in 10.0 mi NNW 5.8 mph - N/A   Overcast
3:55 AM 41.0 °F 37.1 °F 33.8 °F 76% 30.10 in 10.0 mi WNW 5.8 mph - N/A   Mostly Cloudy
4:15 AM 39.2 °F 35.0 °F 30.2 °F 70% 30.09 in 10.0 mi NW 5.8 mph - N/A   Partly Cloudy
4:35 AM 37.4 °F 31.4 °F 30.2 °F 75% 30.12 in 10.0 mi NW 8.1 mph - N/A   Mostly Cloudy
4:55 AM 37.4 °F 32.1 °F 30.2 °F 75% 30.12 in 10.0 mi NW 6.9 mph - N/A   Overcast
5:15 AM 37.4 °F 32.1 °F 30.2 °F 75% 30.13 in 10.0 mi NNW 6.9 mph - N/A   Mostly Cloudy
5:35 AM 37.4 °F 32.8 °F 30.2 °F 75% 30.14 in 10.0 mi NW 5.8 mph - N/A   Mostly Cloudy
5:55 AM 37.4 °F 33.8 °F 30.2 °F 75% 30.15 in 10.0 mi NNW 4.6 mph - N/A   Scattered Clouds
6:15 AM 35.6 °F 30.7 °F 28.4 °F 75% 30.15 in 10.0 mi NW 5.8 mph - N/A   Partly Cloudy
6:35 AM 35.6 °F 31.7 °F 28.4 °F 75% 30.15 in 10.0 mi North 4.6 mph - N/A   Clear
6:55 AM 33.8 °F - 28.4 °F 81% 30.16 in 10.0 mi North - - N/A   Clear
7:15 AM 30.2 °F 23.4 °F 26.6 °F 86% 30.17 in 10.0 mi NW 6.9 mph - N/A   Clear
7:35 AM 32.0 °F 28.7 °F 26.6 °F 80% 30.17 in 10.0 mi NNW 3.5 mph - N/A   Clear
7:55 AM 32.0 °F 28.7 °F 28.4 °F 87% 30.17 in 10.0 mi WSW 3.5 mph - N/A   Clear
8:15 AM 28.4 °F - 24.8 °F 86% 30.20 in 10.0 mi Calm Calm - N/A   Clear
8:35 AM 30.2 °F 25.4 °F 24.8 °F 80% 30.21 in 10.0 mi NW 4.6 mph - N/A   Scattered Clouds
8:55 AM 33.8 °F 27.0 °F 28.4 °F 81% 30.22 in 10.0 mi NW 8.1 mph - N/A   Partly Cloudy
9:15 AM 35.6 °F 28.0 °F 30.2 °F 81% 30.24 in 10.0 mi NNW 10.4 mph - N/A   Clear
9:35 AM 37.4 °F 29.8 °F 30.2 °F 75% 30.25 in 10.0 mi North 11.5 mph - N/A   Clear
9:55 AM 39.2 °F 32.0 °F 30.2 °F 70% 30.25 in 10.0 mi North 11.5 mph - N/A   Partly Cloudy
10:15 AM 42.8 °F 34.3 °F 26.6 °F 53% 30.27 in 10.0 mi North 19.6 mph - N/A   Clear
10:35 AM 42.8 °F 34.0 °F 24.8 °F 49% 30.28 in 10.0 mi North 20.7 mph - N/A   Mostly Cloudy
10:55 AM 42.8 °F 34.5 °F 24.8 °F 49% 30.29 in 10.0 mi NNE 18.4 mph - N/A   Mostly Cloudy
11:15 AM 44.6 °F 37.8 °F 24.8 °F 46% 30.30 in 10.0 mi North 15.0 mph - N/A   Partly Cloudy
11:35 AM 44.6 °F 38.4 °F 24.8 °F 46% 30.30 in 10.0 mi North 12.7 mph - N/A   Clear
11:55 AM 46.4 °F 40.1 °F 24.8 °F 43% 30.31 in 10.0 mi NNW 15.0 mph - N/A   Mostly Cloudy
12:15 PM 44.6 °F 38.4 °F 24.8 °F 46% 30.31 in 10.0 mi NNW 12.7 mph - N/A   Scattered Clouds
12:35 PM 46.4 °F 40.4 °F 24.8 °F 43% 30.30 in 10.0 mi NW 13.8 mph 18.4 mph N/A   Clear
12:55 PM 46.4 °F 41.1 °F 26.6 °F 46% 30.30 in 10.0 mi NW 11.5 mph 19.6 mph N/A   Clear
1:15 PM 46.4 °F 40.7 °F 26.6 °F 46% 30.29 in 10.0 mi NW 12.7 mph 18.4 mph N/A   Clear
1:35 PM 46.4 °F 41.1 °F 26.6 °F 46% 30.29 in 10.0 mi WNW 11.5 mph 20.7 mph N/A   Partly Cloudy
1:55 PM 48.2 °F - 24.8 °F 40% 30.28 in 10.0 mi NW 12.7 mph 18.4 mph N/A   Scattered Clouds
2:15 PM 48.2 °F - 24.8 °F 40% 30.27 in 10.0 mi NW 17.3 mph 23.0 mph N/A   Scattered Clouds
2:35 PM 48.2 °F - 23.0 °F 37% 30.27 in 10.0 mi NNW 15.0 mph 25.3 mph N/A   Clear
2:55 PM 48.2 °F - 23.0 °F 37% 30.26 in 10.0 mi NNW 13.8 mph 18.4 mph N/A   Clear
3:15 PM 50.0 °F - 23.0 °F 35% 30.26 in 10.0 mi NW 15.0 mph 26.5 mph N/A   Clear
3:35 PM 51.8 °F - 23.0 °F 33% 30.25 in 10.0 mi NNW 19.6 mph 27.6 mph N/A   Scattered Clouds
3:55 PM 51.8 °F - 19.4 °F 28% 30.25 in 10.0 mi NNW 18.4 mph 25.3 mph N/A   Partly Cloudy
4:15 PM 51.8 °F - 19.4 °F 28% 30.25 in 10.0 mi NNW 18.4 mph 25.3 mph N/A   Partly Cloudy
4:35 PM 51.8 °F - 19.4 °F 28% 30.25 in 10.0 mi NNW 13.8 mph 25.3 mph N/A   Partly Cloudy
4:55 PM 51.8 °F - 17.6 °F 26% 30.25 in 10.0 mi NNW 21.9 mph 25.3 mph N/A   Clear
5:15 PM 51.8 °F - 17.6 °F 26% 30.25 in 10.0 mi NW 15.0 mph 26.5 mph N/A   Clear
5:35 PM 51.8 °F - 17.6 °F 26% 30.25 in 10.0 mi NW 17.3 mph 23.0 mph N/A   Clear
5:55 PM 50.0 °F - 15.8 °F 26% 30.25 in 10.0 mi NNW 17.3 mph 25.3 mph N/A   Clear
6:15 PM 50.0 °F - 15.8 °F 26% 30.25 in 10.0 mi NNW 16.1 mph 21.9 mph N/A   Clear
6:35 PM 48.2 °F - 17.6 °F 30% 30.25 in 10.0 mi NNW 20.7 mph 26.5 mph N/A   Clear
6:55 PM 48.2 °F - 15.8 °F 27% 30.26 in 10.0 mi NNW 15.0 mph - N/A   Clear
7:15 PM 46.4 °F 40.7 °F 15.8 °F 29% 30.26 in 10.0 mi NNW 12.7 mph - N/A   Clear
7:35 PM 44.6 °F 39.2 °F 15.8 °F 31% 30.27 in 10.0 mi NNW 10.4 mph - N/A   Clear
7:55 PM 41.0 °F 36.4 °F 17.6 °F 39% 30.28 in 10.0 mi NNW 6.9 mph - N/A   Clear
8:15 PM 39.2 °F 34.2 °F 17.6 °F 42% 30.29 in 10.0 mi NNW 6.9 mph - N/A   Clear
8:35 PM 37.4 °F 32.1 °F 17.6 °F 45% 30.29 in 10.0 mi NNW 6.9 mph - N/A   Clear
8:55 PM 33.8 °F 29.6 °F 19.4 °F 56% 30.30 in 10.0 mi NNW 4.6 mph - N/A   Clear
9:15 PM 33.8 °F 29.6 °F 19.4 °F 56% 30.31 in 10.0 mi NNW 4.6 mph - N/A   Clear
9:35 PM 33.8 °F - 19.4 °F 56% 30.31 in 10.0 mi Calm Calm - N/A   Clear
9:55 PM 33.8 °F 30.8 °F 19.4 °F 56% 30.32 in 10.0 mi North 3.5 mph - N/A   Clear
10:15 PM 35.6 °F 29.9 °F 19.4 °F 52% 30.32 in 10.0 mi NE 6.9 mph - N/A   Clear
10:35 PM 33.8 °F 30.8 °F 17.6 °F 52% 30.33 in 10.0 mi NE 3.5 mph - N/A   Clear
10:55 PM 32.0 °F - 19.4 °F 60% 30.34 in 10.0 mi Calm Calm - N/A   Clear
11:15 PM 30.2 °F - 19.4 °F 64% 30.34 in 10.0 mi Calm Calm - N/A   Clear
11:35 PM 30.2 °F 25.4 °F 17.6 °F 60% 30.34 in 10.0 mi NE 4.6 mph - N/A   Clear
11:55 PM 28.4 °F 23.3 °F 19.4 °F 69% 30.35 in 10.0 mi NE 4.6 mph - N/A   Clear